Time;durP1;ratioP1;P1;durP2;ratioP2;P2;SDS_P1;SDS_P2;PMS_P1;PMS_P2;Temp;Humidity;BMP_temperature;BMP_pressure;BME280_temperature;BME280_humidity;BME280_pressure;Samples;Min_cycle;Max_cycle;Signal;HPM_P1;HPM_P2
2024/04/11 00:02:17;;;;;;;7.00;3.38;;;12.00;1.00;;;;;;5208796;27;20000;-78
2024/04/11 00:04:42;;;;;;;6.22;3.58;;;12.00;1.00;;;;;;5208751;27;20000;-78
2024/04/11 00:07:08;;;;;;;7.15;2.95;;;12.00;1.00;;;;;;5208531;27;20019;-78
2024/04/11 00:09:33;;;;;;;6.03;3.10;;;11.90;1.00;;;;;;5208558;27;20007;-78
2024/04/11 00:11:59;;;;;;;8.18;3.35;;;11.90;1.00;;;;;;5241707;27;20002;-78
2024/04/11 00:14:24;;;;;;;6.75;3.13;;;11.90;1.00;;;;;;5241980;27;20354;-78
2024/04/11 00:16:52;;;;;;;6.95;3.20;;;11.80;1.00;;;;;;5319848;26;20104;-78
2024/04/11 00:19:17;;;;;;;5.07;2.65;;;11.70;1.00;;;;;;5344026;26;20009;-78
2024/04/11 00:21:43;;;;;;;5.13;2.78;;;11.70;1.00;;;;;;5343984;26;20106;-78
2024/04/11 00:24:08;;;;;;;5.00;2.90;;;11.60;1.00;;;;;;5284080;27;19995;-78
2024/04/11 00:26:34;;;;;;;6.93;3.22;;;11.60;30.60;;;;;;5309333;27;20120;-78
2024/04/11 00:28:59;;;;;;;7.13;2.88;;;11.50;67.30;;;;;;5309216;27;20448;-78
2024/04/11 00:31:25;;;;;;;6.60;3.13;;;11.50;94.50;;;;;;5274858;27;20005;-78
2024/04/11 00:33:54;;;;;;;6.45;3.00;;;11.60;99.90;;;;;;5275256;27;20034;-78
2024/04/11 00:36:23;;;;;;;7.75;3.08;;;11.50;99.90;;;;;;5241054;27;20026;-78
2024/04/11 00:38:51;;;;;;;5.28;3.10;;;11.40;99.90;;;;;;5309108;27;20008;-78
2024/04/11 00:41:19;;;;;;;5.90;3.25;;;11.30;99.90;;;;;;5248440;27;19995;-78
2024/04/11 00:43:45;;;;;;;5.82;3.05;;;11.10;99.90;;;;;;5241027;27;20478;-78
2024/04/11 00:46:11;;;;;;;6.40;3.00;;;11.10;99.90;;;;;;5208103;27;20003;-78
2024/04/11 00:48:38;;;;;;;5.63;3.28;;;11.10;99.90;;;;;;5174505;27;20436;-78
2024/04/11 00:51:07;;;;;;;6.35;3.72;;;11.00;99.90;;;;;;5175442;27;20036;-78
2024/04/11 00:53:33;;;;;;;5.78;3.63;;;10.90;1.00;;;;;;5177522;27;20004;-78
2024/04/11 00:55:59;;;;;;;6.60;3.30;;;10.90;1.00;;;;;;5178702;27;20007;-78
2024/04/11 00:58:25;;;;;;;8.52;4.35;;;10.80;1.00;;;;;;5211179;27;20419;-78
2024/04/11 01:00:52;;;;;;;8.77;3.78;;;10.70;1.00;;;;;;5244347;27;20010;-78
2024/04/11 01:03:18;;;;;;;6.60;3.65;;;10.80;27.20;;;;;;5244292;27;20455;-78
2024/04/11 01:05:44;;;;;;;9.52;3.75;;;10.70;94.60;;;;;;5244693;27;20081;-78
2024/04/11 01:08:10;;;;;;;7.60;3.78;;;10.60;99.90;;;;;;5190764;27;20007;-78
2024/04/11 01:10:39;;;;;;;8.95;4.20;;;10.60;99.90;;;;;;5178637;27;20000;-79
2024/04/11 01:13:05;;;;;;;8.70;4.40;;;10.60;99.90;;;;;;5126406;27;20038;-79
2024/04/11 01:15:35;;;;;;;9.40;3.63;;;10.50;99.90;;;;;;5210088;27;19991;-78
2024/04/11 01:18:01;;;;;;;7.97;3.72;;;10.50;99.90;;;;;;5271870;27;19994;-79
2024/04/11 01:20:27;;;;;;;6.90;4.05;;;10.40;99.90;;;;;;5277691;27;19994;-78
2024/04/11 01:22:52;;;;;;;7.93;4.03;;;10.40;1.00;;;;;;5312489;27;20009;-78
2024/04/11 01:25:18;;;;;;;7.72;3.78;;;10.30;1.00;;;;;;5306869;27;20008;-79
2024/04/11 01:27:44;;;;;;;7.68;3.95;;;10.30;1.00;;;;;;5278546;27;20006;-78
2024/04/11 01:30:11;;;;;;;9.73;4.57;;;10.20;1.00;;;;;;5312208;27;19990;-77
2024/04/11 01:32:37;;;;;;;8.35;4.57;;;10.20;1.00;;;;;;5339501;26;19996;-77
2024/04/11 01:35:08;;;;;;;8.20;3.92;;;10.20;1.00;;;;;;5346897;26;19992;-77
2024/04/11 01:37:35;;;;;;;9.15;4.07;;;10.20;48.60;;;;;;5277949;27;19994;-77
2024/04/11 01:40:01;;;;;;;7.47;4.13;;;10.20;21.80;;;;;;5277802;27;20425;-77
2024/04/11 01:42:26;;;;;;;7.60;4.18;;;10.20;26.70;;;;;;5244064;27;19991;-78
2024/04/11 01:44:52;;;;;;;7.05;4.00;;;10.20;16.60;;;;;;5177943;27;20004;-78
2024/04/11 01:47:17;;;;;;;8.32;4.25;;;10.20;10.30;;;;;;5178171;27;20005;-78
2024/04/11 01:49:43;;;;;;;7.30;3.92;;;10.20;24.20;;;;;;5177705;27;20011;-78
2024/04/11 01:52:12;;;;;;;8.10;3.90;;;10.10;98.90;;;;;;5145661;27;19993;-78
2024/04/11 01:54:41;;;;;;;7.55;4.18;;;10.10;99.90;;;;;;5145367;27;20007;-78
2024/04/11 01:57:08;;;;;;;8.60;4.35;;;10.00;99.90;;;;;;5145041;27;19997;-78
2024/04/11 01:59:34;;;;;;;5.65;4.00;;;10.00;99.90;;;;;;5112891;28;20008;-78
2024/04/11 02:02:01;;;;;;;7.78;4.13;;;9.90;99.90;;;;;;5061880;28;19999;-78
2024/04/11 02:04:30;;;;;;;9.60;4.38;;;9.90;99.90;;;;;;5049980;28;20375;-78
2024/04/11 02:06:57;;;;;;;7.65;4.20;;;9.80;99.90;;;;;;5050536;28;20384;-78
2024/04/11 02:09:23;;;;;;;8.45;4.10;;;9.80;99.90;;;;;;5075313;28;20451;-78
2024/04/11 02:11:53;;;;;;;7.03;3.83;;;9.70;99.90;;;;;;5081542;28;20002;-77
2024/04/11 02:14:19;;;;;;;6.82;4.10;;;9.70;1.00;;;;;;5162570;27;20000;-77
2024/04/11 02:16:45;;;;;;;8.10;4.32;;;9.60;1.00;;;;;;5177548;27;20048;-78
2024/04/11 02:19:12;;;;;;;6.78;4.25;;;9.60;1.00;;;;;;5177290;27;20025;-78
2024/04/11 02:21:42;;;;;;;8.00;4.30;;;9.60;1.00;;;;;;5190462;27;19999;-76
2024/04/11 02:24:11;;;;;;;6.53;4.18;;;9.50;1.00;;;;;;5334344;26;20155;-76
2024/04/11 02:26:37;;;;;;;9.13;4.93;;;9.50;1.00;;;;;;5345993;26;19997;-76
2024/04/11 02:29:04;;;;;;;8.23;4.55;;;9.50;1.00;;;;;;5345448;26;20016;-77
2024/04/11 02:31:29;;;;;;;8.10;4.78;;;9.50;1.00;;;;;;5378815;26;20046;-77
2024/04/11 02:33:57;;;;;;;7.18;4.90;;;9.50;8.20;;;;;;5383688;26;20311;-77
2024/04/11 02:36:23;;;;;;;10.50;5.70;;;9.50;1.00;;;;;;5383742;26;19996;-77
2024/04/11 02:38:49;;;;;;;9.75;5.00;;;9.50;1.00;;;;;;5383614;26;20004;-77
2024/04/11 02:41:15;;;;;;;8.77;5.63;;;9.50;1.00;;;;;;5383316;26;20018;-78
2024/04/11 02:43:40;;;;;;;12.13;5.10;;;9.50;1.00;;;;;;5383513;26;20000;-77
2024/04/11 02:46:15;;;;;;;9.10;4.90;;;9.60;18.00;;;;;;5379839;26;20127;-78
2024/04/11 02:48:41;;;;;;;10.40;5.20;;;9.60;34.40;;;;;;5380306;26;20069;-77
2024/04/11 02:51:08;;;;;;;7.70;5.10;;;9.60;17.90;;;;;;5381307;26;20004;-78
2024/04/11 02:53:33;;;;;;;10.40;5.30;;;9.60;1.00;;;;;;5380585;26;20525;-77
2024/04/11 02:56:00;;;;;;;9.77;5.75;;;9.60;1.00;;;;;;5345702;26;19996;-77
2024/04/11 02:58:27;;;;;;;11.35;5.50;;;9.60;1.00;;;;;;5345606;26;19996;-78
2024/04/11 03:01:06;;;;;;;7.53;5.13;;;9.60;1.00;;;;;;5344872;26;20395;-77
2024/04/11 03:03:34;;;;;;;11.45;5.72;;;9.50;1.00;;;;;;5310227;27;20026;-77
2024/04/11 03:06:11;;;;;;;10.23;6.10;;;9.40;99.90;;;;;;5310318;27;20009;-77
2024/04/11 03:08:40;;;;;;;10.15;5.57;;;9.30;99.90;;;;;;5208981;27;20066;-77
2024/04/11 03:11:09;;;;;;;10.48;6.20;;;9.30;99.90;;;;;;5209899;27;20046;-77
2024/04/11 03:13:35;;;;;;;9.30;6.00;;;9.20;99.90;;;;;;5209823;27;20024;-77
2024/04/11 03:16:01;;;;;;;13.60;5.72;;;9.20;99.90;;;;;;5209302;27;20011;-77
2024/04/11 03:18:27;;;;;;;9.52;5.63;;;9.10;99.90;;;;;;5242662;27;19995;-77
2024/04/11 03:20:59;;;;;;;10.63;6.20;;;9.10;99.90;;;;;;5242443;27;19999;-77
2024/04/11 03:23:27;;;;;;;10.63;6.30;;;9.00;99.90;;;;;;5242163;27;19995;-76
2024/04/11 03:25:53;;;;;;;14.45;6.70;;;9.00;99.90;;;;;;5242647;27;20014;-77
2024/04/11 03:28:19;;;;;;;12.10;6.03;;;9.00;99.90;;;;;;5208851;27;19992;-77
2024/04/11 03:31:04;;;;;;;12.77;6.53;;;8.90;99.90;;;;;;5209299;27;19995;-77
2024/04/11 03:33:30;;;;;;;13.10;7.18;;;8.90;99.90;;;;;;5211225;27;19995;-77
2024/04/11 03:36:00;;;;;;;15.20;7.10;;;8.90;99.90;;;;;;5242559;27;20022;-77
2024/04/11 03:38:28;;;;;;;18.98;6.53;;;8.80;99.90;;;;;;5242438;27;20443;-77
2024/04/11 03:40:58;;;;;;;12.65;6.28;;;8.80;99.90;;;;;;5242298;27;20168;-77
2024/04/11 03:43:27;;;;;;;16.80;7.13;;;8.80;99.90;;;;;;5242065;27;19998;-77
2024/04/11 03:46:05;;;;;;;12.55;6.63;;;8.70;99.90;;;;;;5242799;27;20414;-77
2024/04/11 03:48:31;;;;;;;12.52;6.90;;;8.70;99.90;;;;;;5245324;27;20486;-77
2024/04/11 03:50:56;;;;;;;15.90;7.20;;;8.70;99.90;;;;;;5275940;27;19998;-76
2024/04/11 03:53:22;;;;;;;22.67;8.13;;;8.60;99.90;;;;;;5275675;27;20005;-76
2024/04/11 03:55:48;;;;;;;17.42;6.88;;;8.50;1.00;;;;;;5241747;27;19995;-76
2024/04/11 03:58:16;;;;;;;17.70;7.50;;;8.50;1.00;;;;;;5243190;27;20479;-76
2024/04/11 04:00:45;;;;;;;10.82;6.95;;;8.40;1.00;;;;;;5276202;27;19994;-76
2024/04/11 04:03:11;;;;;;;10.23;7.30;;;8.40;1.00;;;;;;5275490;27;20568;-77
2024/04/11 04:05:36;;;;;;;17.75;7.75;;;8.50;1.00;;;;;;5275783;27;20002;-77
2024/04/11 04:08:04;;;;;;;13.18;7.93;;;8.50;99.90;;;;;;5275403;27;20450;-77
2024/04/11 04:10:31;;;;;;;12.07;7.20;;;8.60;99.90;;;;;;5275607;27;19998;-77
2024/04/11 04:12:58;;;;;;;15.68;8.02;;;8.60;1.00;;;;;;5338724;26;20005;-77
2024/04/11 04:15:24;;;;;;;16.95;7.75;;;8.60;1.00;;;;;;5343748;26;19993;-77
2024/04/11 04:17:51;;;;;;;18.00;8.90;;;8.60;1.00;;;;;;5344076;26;20015;-77
2024/04/11 04:20:17;;;;;;;16.38;10.43;;;8.70;1.00;;;;;;5343248;26;20329;-77
2024/04/11 04:22:44;;;;;;;21.35;14.02;;;8.80;1.00;;;;;;5343815;26;20020;-78
2024/04/11 04:25:11;;;;;;;25.25;13.18;;;8.80;1.00;;;;;;5344088;26;20451;-77
2024/04/11 04:27:37;;;;;;;14.40;9.23;;;9.00;1.00;;;;;;5340622;26;19999;-79
2024/04/11 04:30:09;;;;;;;16.65;9.73;;;9.00;99.90;;;;;;5346813;26;19989;-76
2024/04/11 04:32:38;;;;;;;21.25;9.35;;;9.20;99.90;;;;;;5347505;26;20417;-76
2024/04/11 04:35:09;;;;;;;19.70;9.88;;;9.30;99.90;;;;;;5289148;26;20001;-76
2024/04/11 04:37:35;;;;;;;18.50;9.65;;;9.40;99.90;;;;;;5278551;27;20508;-77
2024/04/11 04:40:01;;;;;;;27.77;10.70;;;9.60;99.90;;;;;;5312097;27;20434;-77
2024/04/11 04:42:28;;;;;;;18.58;11.82;;;9.70;99.90;;;;;;5312535;27;20067;-77
2024/04/11 04:44:54;;;;;;;23.67;11.93;;;10.00;99.90;;;;;;5312073;27;20469;-77
2024/04/11 04:47:28;;;;;;;19.10;10.23;;;10.10;42.30;;;;;;5312240;27;19993;-77
2024/04/11 04:49:55;;;;;;;22.90;12.27;;;10.40;1.00;;;;;;5312071;27;20053;-77
2024/04/11 04:52:24;;;;;;;21.85;10.63;;;10.80;1.00;;;;;;5312694;27;20080;-77
2024/04/11 04:54:51;;;;;;;30.85;11.70;;;11.00;1.00;;;;;;5312591;27;19993;-77
2024/04/11 04:57:17;;;;;;;29.73;12.00;;;10.90;99.90;;;;;;5311966;27;20005;-77
2024/04/11 04:59:42;;;;;;;24.90;10.20;;;10.70;99.90;;;;;;5307469;27;19994;-77
2024/04/11 05:02:09;;;;;;;32.72;10.35;;;10.80;1.00;;;;;;5309078;27;20490;-78
2024/04/11 05:04:38;;;;;;;29.75;10.85;;;10.80;99.90;;;;;;5311663;27;20004;-76
2024/04/11 05:07:04;;;;;;;14.85;8.88;;;10.60;99.90;;;;;;5277934;27;20073;-77
2024/04/11 05:09:30;;;;;;;23.83;10.23;;;10.70;1.00;;;;;;5277795;27;20004;-77
2024/04/11 05:11:57;;;;;;;27.73;10.10;;;10.70;1.00;;;;;;5248946;27;19999;-77
2024/04/11 05:14:23;;;;;;;21.60;9.95;;;10.70;1.00;;;;;;5244694;27;20065;-77
2024/04/11 05:16:50;;;;;;;29.05;9.57;;;10.80;1.00;;;;;;5244164;27;20343;-77
2024/04/11 05:19:17;;;;;;;25.42;10.18;;;10.80;1.00;;;;;;5243975;27;20006;-77
2024/04/11 05:21:43;;;;;;;16.88;9.32;;;10.80;1.00;;;;;;5243977;27;20019;-77
2024/04/11 05:24:09;;;;;;;24.08;9.88;;;10.80;1.00;;;;;;5244197;27;19999;-77
2024/04/11 05:26:35;;;;;;;21.02;9.27;;;11.00;99.90;;;;;;5243960;27;20018;-77
2024/04/11 05:29:01;;;;;;;20.65;9.38;;;11.00;99.90;;;;;;5270278;27;20310;-77
2024/04/11 05:31:27;;;;;;;22.92;9.63;;;11.00;1.00;;;;;;5304506;27;20009;-77
2024/04/11 05:33:54;;;;;;;20.50;9.23;;;11.20;99.90;;;;;;5338879;26;20025;-77
2024/04/11 05:36:28;;;;;;;17.83;8.13;;;11.40;99.90;;;;;;5346472;26;20004;-77
2024/04/11 05:38:54;;;;;;;15.57;7.28;;;11.60;99.90;;;;;;5310755;27;20226;-77
2024/04/11 05:41:20;;;;;;;19.98;8.68;;;11.60;99.90;;;;;;5311709;27;20331;-77
2024/04/11 05:43:49;;;;;;;18.60;8.25;;;11.60;99.90;;;;;;5345651;26;19997;-76
2024/04/11 05:46:19;;;;;;;21.77;9.00;;;11.50;99.90;;;;;;5276870;27;20311;-76
2024/04/11 05:48:48;;;;;;;21.58;8.68;;;11.50;99.90;;;;;;5277025;27;20009;-76
2024/04/11 05:51:14;;;;;;;21.45;8.77;;;11.70;99.90;;;;;;5277425;27;20429;-76
2024/04/11 05:53:41;;;;;;;20.30;8.55;;;11.80;99.10;;;;;;5277663;27;20010;-76
2024/04/11 05:56:08;;;;;;;24.20;11.40;;;14.20;15.30;;;;;;5278012;27;19995;-76
2024/04/11 05:58:35;;;;;;;22.08;11.85;;;16.80;38.30;;;;;;5277690;27;20006;-76
2024/04/11 06:01:05;;;;;;;16.63;8.45;;;18.20;99.90;;;;;;5307464;27;20009;-76
2024/04/11 06:03:34;;;;;;;16.83;7.10;;;20.30;99.90;;;;;;5311432;27;19998;-79
2024/04/11 06:05:59;;;;;;;16.67;6.55;;;21.90;1.00;;;;;;5311416;27;19998;-77
2024/04/11 06:08:25;;;;;;;20.38;7.30;;;23.10;1.00;;;;;;5311276;27;20070;-77
2024/04/11 06:10:51;;;;;;;22.33;7.50;;;23.50;1.00;;;;;;5272692;27;20015;-77
2024/04/11 06:13:20;;;;;;;11.35;5.95;;;25.40;1.00;;;;;;5277017;27;20010;-77
2024/04/11 06:15:47;;;;;;;14.25;6.03;;;23.00;1.00;;;;;;5246697;27;19999;-78
2024/04/11 06:18:14;;;;;;;12.52;6.05;;;22.20;1.00;;;;;;5333254;26;20045;-77
2024/04/11 06:20:41;;;;;;;9.73;4.03;;;21.80;1.00;;;;;;5345356;26;19996;-76
2024/04/11 06:23:08;;;;;;;11.15;4.97;;;23.40;99.90;;;;;;5345186;26;20001;-76
2024/04/11 06:25:36;;;;;;;10.43;3.63;;;22.70;99.90;;;;;;5345142;26;20356;-76
2024/04/11 06:28:02;;;;;;;8.88;3.72;;;23.70;99.90;;;;;;5345300;26;20047;-77
2024/04/11 06:30:27;;;;;;;7.85;4.30;;;22.80;99.90;;;;;;5345511;26;20001;-76
2024/04/11 06:32:57;;;;;;;7.93;4.30;;;21.10;99.90;;;;;;5345125;26;20009;-77
2024/04/11 06:35:24;;;;;;;9.38;4.38;;;22.80;99.90;;;;;;5344373;26;20011;-75
2024/04/11 06:37:51;;;;;;;12.90;4.40;;;23.30;99.90;;;;;;5344805;26;20147;-74
2024/04/11 06:40:16;;;;;;;9.55;3.10;;;23.60;99.90;;;;;;5345035;26;20001;-75
2024/04/11 06:42:50;;;;;;;8.45;3.45;;;23.50;99.90;;;;;;5376845;26;19992;-74
2024/04/11 06:45:25;;;;;;;6.85;3.38;;;21.40;99.90;;;;;;5383788;26;20300;-75
2024/04/11 06:47:52;;;;;;;8.82;3.80;;;24.10;99.90;;;;;;5416026;26;19991;-74
2024/04/11 06:50:20;;;;;;;8.38;3.30;;;26.70;99.90;;;;;;5415603;26;20010;-74
2024/04/11 06:52:45;;;;;;;7.57;3.45;;;26.60;99.90;;;;;;5380029;26;20370;-74
2024/04/11 06:55:15;;;;;;;6.97;3.28;;;26.50;99.90;;;;;;5380054;26;20116;-74
2024/04/11 06:57:44;;;;;;;9.10;2.97;;;26.00;99.90;;;;;;5310644;27;20000;-75
2024/04/11 07:00:35;;;;;;;9.57;3.30;;;28.40;99.90;;;;;;5310629;27;20008;-75
2024/04/11 07:03:13;;;;;;;7.40;3.55;;;28.70;99.90;;;;;;5310705;27;20381;-75
2024/04/11 07:05:53;;;;;;;6.65;2.88;;;27.20;99.90;;;;;;5276413;27;20057;-75
2024/04/11 07:08:29;;;;;;;12.68;8.77;;;27.50;99.90;;;;;;5242976;27;19999;-76
2024/04/11 07:10:58;;;;;;;11.13;5.03;;;26.30;99.90;;;;;;5242987;27;20342;-75
2024/04/11 07:13:24;;;;;;;9.05;3.58;;;25.70;99.90;;;;;;5242899;27;20505;-76
2024/04/11 07:15:50;;;;;;;9.00;3.35;;;29.00;99.90;;;;;;5242670;27;20082;-76
2024/04/11 07:18:15;;;;;;;14.40;7.85;;;30.70;99.90;;;;;;5234636;27;20327;-76
2024/04/11 07:20:50;;;;;;;10.85;4.82;;;30.70;99.90;;;;;;5209643;27;20010;-77
2024/04/11 07:23:17;;;;;;;10.00;4.30;;;29.20;99.90;;;;;;5251961;27;19994;-76
2024/04/11 07:25:43;;;;;;;8.65;3.80;;;30.20;99.90;;;;;;5275814;27;20006;-76
2024/04/11 07:28:09;;;;;;;12.63;3.65;;;29.10;99.90;;;;;;5267334;27;20005;-77
2024/04/11 07:30:38;;;;;;;18.10;4.00;;;27.30;99.90;;;;;;5242181;27;19995;-74
2024/04/11 07:33:06;;;;;;;9.13;3.70;;;28.30;99.90;;;;;;5242127;27;20115;-74
2024/04/11 07:35:35;;;;;;;7.75;3.10;;;28.20;99.90;;;;;;5243288;27;19995;-75
2024/04/11 07:38:02;;;;;;;5.03;2.70;;;26.60;99.90;;;;;;5275598;27;20043;-74
2024/04/11 07:40:27;;;;;;;6.78;2.80;;;29.00;99.90;;;;;;5310029;26;19997;-78
2024/04/11 07:43:09;;;;;;;6.35;2.45;;;28.20;99.90;;;;;;5309577;27;20441;-76
2024/04/11 07:45:40;;;;;;;7.00;3.15;;;31.60;99.90;;;;;;5310394;27;20005;-77
2024/04/11 07:48:08;;;;;;;8.73;3.92;;;33.70;99.90;;;;;;5309767;26;20444;-76
2024/04/11 07:50:34;;;;;;;6.13;3.05;;;32.40;99.90;;;;;;5276673;27;20090;-79
2024/04/11 07:53:00;;;;;;;8.63;3.33;;;32.10;99.90;;;;;;5242280;27;20005;-76
2024/04/11 07:55:27;;;;;;;12.32;5.47;;;32.70;99.90;;;;;;5241925;27;20427;-75
2024/04/11 07:57:52;;;;;;;10.45;4.32;;;33.60;99.90;;;;;;5206994;27;20031;-75
2024/04/11 08:00:27;;;;;;;12.75;4.07;;;31.10;99.90;;;;;;5175926;27;20453;-75
2024/04/11 08:02:56;;;;;;;6.72;3.45;;;31.60;99.90;;;;;;5175878;27;20001;-73
2024/04/11 08:05:24;;;;;;;5.28;3.20;;;32.30;99.90;;;;;;5176734;27;19996;-75
2024/04/11 08:07:51;;;;;;;5.43;3.20;;;30.50;99.90;;;;;;5176774;27;20045;-75
2024/04/11 08:10:20;;;;;;;6.97;3.67;;;32.00;99.90;;;;;;5111338;27;20000;-73
2024/04/11 08:12:48;;;;;;;5.57;3.30;;;32.10;99.90;;;;;;5143252;27;20011;-74
2024/04/11 08:15:17;;;;;;;9.40;3.13;;;28.30;99.90;;;;;;5112236;28;20012;-72
2024/04/11 08:17:42;;;;;;;6.38;3.30;;;26.70;99.90;;;;;;5142156;27;20007;-73
2024/04/11 08:20:12;;;;;;;7.70;4.90;;;27.80;99.90;;;;;;5175893;27;20000;-74
2024/04/11 08:22:43;;;;;;;8.68;3.60;;;28.90;99.90;;;;;;5176379;27;20440;-75
2024/04/11 08:25:12;;;;;;;5.32;3.20;;;28.40;99.90;;;;;;5207242;27;20332;-75
2024/04/11 08:27:42;;;;;;;6.95;3.50;;;28.80;99.90;;;;;;5240768;27;20019;-74
2024/04/11 08:30:09;;;;;;;15.43;4.70;;;31.10;99.90;;;;;;5241436;27;19995;-76
2024/04/11 08:32:35;;;;;;;8.18;5.25;;;33.10;99.90;;;;;;5275861;27;19998;-74
2024/04/11 08:35:01;;;;;;;5.72;3.65;;;34.00;99.90;;;;;;5275347;27;20014;-73
2024/04/11 08:37:29;;;;;;;4.50;3.40;;;35.50;99.90;;;;;;5275235;27;20310;-73
2024/04/11 08:39:55;;;;;;;6.35;3.97;;;36.20;99.90;;;;;;5275200;27;20010;-74
2024/04/11 08:42:22;;;;;;;6.45;3.13;;;35.60;99.90;;;;;;5272281;27;19995;-74
2024/04/11 08:44:48;;;;;;;5.70;3.67;;;33.50;99.90;;;;;;5275102;27;20335;-73
2024/04/11 08:47:15;;;;;;;7.47;5.88;;;34.90;99.90;;;;;;5275069;27;20211;-76
2024/04/11 08:49:40;;;;;;;11.75;3.75;;;35.90;99.90;;;;;;5207938;27;19995;-78
2024/04/11 08:52:07;;;;;;;6.38;3.72;;;36.90;99.90;;;;;;5179172;27;20016;-76
2024/04/11 08:54:35;;;;;;;5.00;2.90;;;36.60;99.90;;;;;;5119792;27;20342;-75
2024/04/11 08:57:01;;;;;;;7.05;3.42;;;36.30;99.90;;;;;;5109956;27;20009;-74
2024/04/11 08:59:28;;;;;;;5.00;3.40;;;33.30;99.90;;;;;;5110744;28;20030;-74
2024/04/11 09:01:54;;;;;;;4.75;3.08;;;30.40;99.90;;;;;;5136000;27;19997;-74
2024/04/11 09:04:20;;;;;;;5.47;2.70;;;31.90;99.90;;;;;;5175018;27;20011;-73
2024/04/11 09:06:49;;;;;;;6.53;3.05;;;30.50;99.90;;;;;;5175491;27;20016;-74
2024/04/11 09:09:16;;;;;;;9.80;3.78;;;28.70;99.90;;;;;;5201387;27;20011;-79
2024/04/11 09:11:44;;;;;;;7.13;3.70;;;27.80;99.90;;;;;;5240446;27;19991;-78
2024/04/11 09:14:12;;;;;;;6.03;3.40;;;27.10;99.90;;;;;;5242851;27;20007;-74
2024/04/11 09:16:38;;;;;;;6.15;2.92;;;26.30;99.90;;;;;;5244211;27;19999;-75
2024/04/11 09:19:05;;;;;;;6.07;3.30;;;25.40;99.90;;;;;;5244491;27;20081;-76
2024/04/11 09:21:32;;;;;;;4.55;2.95;;;24.70;99.90;;;;;;5244270;27;20006;-77
2024/04/11 09:23:57;;;;;;;10.02;3.63;;;25.70;99.90;;;;;;5244720;27;19999;-76
2024/04/11 09:26:25;;;;;;;5.40;3.78;;;25.30;99.90;;;;;;5255944;27;20531;-73
2024/04/11 09:28:51;;;;;;;6.47;3.40;;;26.50;99.90;;;;;;5311852;27;19998;-74
2024/04/11 09:31:20;;;;;;;5.32;3.58;;;27.70;99.90;;;;;;5311694;27;20016;-73
2024/04/11 09:33:53;;;;;;;5.05;3.28;;;26.00;99.90;;;;;;5312289;27;20021;-74
2024/04/11 09:36:20;;;;;;;5.32;3.70;;;24.70;99.90;;;;;;5374391;26;20007;-74
2024/04/11 09:38:53;;;;;;;7.13;3.28;;;24.00;99.90;;;;;;5381138;26;20416;-74
2024/04/11 09:41:20;;;;;;;4.93;3.20;;;24.50;99.90;;;;;;5381305;26;19993;-74
2024/04/11 09:43:50;;;;;;;5.93;3.03;;;26.00;99.90;;;;;;5381063;26;19996;-73
2024/04/11 09:46:22;;;;;;;5.38;3.05;;;26.70;99.90;;;;;;5381120;26;20062;-73
2024/04/11 09:48:51;;;;;;;5.85;3.05;;;29.20;99.90;;;;;;5346081;26;19993;-75
2024/04/11 09:51:20;;;;;;;7.28;3.17;;;32.40;99.90;;;;;;5311227;27;20119;-74
2024/04/11 09:53:46;;;;;;;4.63;3.05;;;33.00;99.90;;;;;;5243977;27;20491;-75
2024/04/11 09:56:14;;;;;;;5.80;2.92;;;30.40;99.90;;;;;;5210497;27;20020;-74
2024/04/11 09:58:43;;;;;;;7.40;3.40;;;27.80;99.90;;;;;;5210614;27;20003;-74
2024/04/11 10:01:31;;;;;;;5.20;2.80;;;26.30;99.90;;;;;;5177401;27;19992;-74
2024/04/11 10:04:13;;;;;;;4.20;2.83;;;25.40;99.90;;;;;;5178449;27;20011;-73
2024/04/11 10:06:41;;;;;;;6.30;2.85;;;24.60;99.90;;;;;;5171043;27;19997;-73
2024/04/11 10:09:13;;;;;;;4.32;2.92;;;23.70;99.90;;;;;;5144885;27;20410;-74
2024/04/11 10:11:46;;;;;;;3.97;2.60;;;25.70;99.90;;;;;;5177445;27;20360;-73
2024/04/11 10:14:17;;;;;;;4.93;2.45;;;29.30;99.90;;;;;;5145191;27;20438;-75
2024/04/11 10:16:48;;;;;;;4.07;2.72;;;32.00;99.90;;;;;;5144983;27;20000;-74
2024/04/11 10:19:21;;;;;;;4.72;2.95;;;33.00;99.90;;;;;;5152851;27;20032;-74
2024/04/11 10:21:49;;;;;;;5.68;2.35;;;31.20;99.90;;;;;;5186921;27;20486;-75
2024/04/11 10:24:16;;;;;;;9.63;4.28;;;30.50;99.90;;;;;;5209878;27;20010;-75
2024/04/11 10:26:50;;;;;;;5.18;2.63;;;30.70;99.90;;;;;;5210223;27;19996;-75
2024/04/11 10:29:20;;;;;;;6.18;2.72;;;30.10;99.90;;;;;;5210391;27;20424;-76
2024/04/11 10:31:56;;;;;;;5.38;2.15;;;30.00;99.90;;;;;;5221042;27;20007;-75
2024/04/11 10:34:34;;;;;;;4.65;2.22;;;29.80;99.90;;;;;;5243340;27;20059;-75
2024/04/11 10:37:07;;;;;;;4.00;2.00;;;28.60;99.90;;;;;;5243998;27;19999;-76
2024/04/11 10:39:38;;;;;;;4.18;2.25;;;28.50;99.90;;;;;;5243642;27;19999;-77
2024/04/11 10:42:07;;;;;;;4.70;2.45;;;26.20;99.90;;;;;;5242633;27;20031;-77
2024/04/11 10:44:34;;;;;;;5.55;2.53;;;25.90;99.90;;;;;;5241552;27;20561;-77
2024/04/11 10:47:07;;;;;;;4.45;2.15;;;26.70;99.90;;;;;;5243374;27;20010;-78
2024/04/11 10:49:34;;;;;;;6.78;2.30;;;27.20;99.90;;;;;;5265563;27;19998;-78
2024/04/11 10:51:59;;;;;;;4.20;2.45;;;27.70;99.90;;;;;;5297186;27;19998;-79
2024/04/11 10:54:30;;;;;;;5.80;2.40;;;27.60;99.90;;;;;;5251824;27;19998;-79
2024/04/11 10:56:56;;;;;;;4.97;2.30;;;28.00;99.90;;;;;;5309031;27;20026;-79
2024/04/11 10:59:22;;;;;;;5.30;2.20;;;28.00;99.90;;;;;;5240858;27;20010;-79
2024/04/11 11:02:02;;;;;;;5.93;2.10;;;27.00;99.90;;;;;;5242357;27;20054;-78
2024/04/11 11:04:30;;;;;;;5.28;2.08;;;27.10;99.90;;;;;;5213609;27;19996;-78
2024/04/11 11:06:59;;;;;;;5.68;2.53;;;27.70;99.90;;;;;;5209507;27;20043;-79
2024/04/11 11:09:27;;;;;;;9.23;2.70;;;27.20;99.90;;;;;;5209741;27;20085;-78
2024/04/11 11:11:54;;;;;;;5.03;2.10;;;27.00;99.90;;;;;;5242400;27;20023;-78
2024/04/11 11:14:24;;;;;;;4.22;1.90;;;26.30;99.90;;;;;;5243190;27;19999;-79
2024/04/11 11:16:50;;;;;;;3.13;1.92;;;25.70;99.90;;;;;;5242923;27;19995;-79
2024/04/11 11:19:17;;;;;;;5.05;2.10;;;24.70;99.90;;;;;;5242586;27;19999;-79
2024/04/11 11:21:55;;;;;;;4.00;2.40;;;25.40;99.90;;;;;;5242848;27;20347;-79
2024/04/11 11:24:24;;;;;;;3.40;1.85;;;24.90;99.90;;;;;;5242125;27;20025;-78
2024/04/11 11:26:58;;;;;;;4.40;2.10;;;24.90;99.90;;;;;;5209258;27;20011;-78
2024/04/11 11:29:26;;;;;;;3.63;2.10;;;24.90;99.90;;;;;;5214582;27;20024;-78
2024/04/11 11:32:18;;;;;;;4.00;1.70;;;24.90;99.90;;;;;;5276025;27;20006;-78
2024/04/11 11:34:46;;;;;;;4.18;2.08;;;25.40;99.90;;;;;;5283018;27;20006;-78
2024/04/11 11:37:13;;;;;;;4.25;1.88;;;25.60;99.90;;;;;;5308989;27;20345;-78
2024/04/11 11:39:49;;;;;;;2.75;1.63;;;26.00;99.90;;;;;;5310615;27;19994;-77
2024/04/11 11:42:26;;;;;;;3.30;1.98;;;25.50;99.90;;;;;;5310900;27;20005;-78
2024/04/11 11:47:34;;;;;;;4.60;2.00;;;25.70;99.90;;;;;;5310633;27;19994;-78
2024/04/11 11:50:10;;;;;;;3.83;2.25;;;25.60;99.90;;;;;;5335856;26;19993;-78
2024/04/11 11:52:37;;;;;;;4.22;1.60;;;25.70;99.90;;;;;;5345361;26;20356;-78
2024/04/11 11:55:06;;;;;;;2.85;1.73;;;25.20;99.90;;;;;;5275626;27;20331;-77
2024/04/11 11:57:41;;;;;;;4.30;1.90;;;25.20;99.90;;;;;;5275877;27;20366;-78
2024/04/11 12:00:19;;;;;;;3.53;1.55;;;24.70;99.90;;;;;;5242250;27;19991;-79
2024/04/11 12:02:51;;;;;;;5.25;1.60;;;25.70;99.90;;;;;;5242371;27;20035;-79
2024/04/11 12:05:23;;;;;;;3.38;1.75;;;25.90;99.90;;;;;;5241908;27;19999;-79
2024/04/11 12:07:50;;;;;;;3.28;1.60;;;25.70;99.90;;;;;;5208723;27;20433;-78
2024/04/11 12:10:16;;;;;;;2.67;1.60;;;26.00;99.90;;;;;;5208686;27;20000;-79
2024/04/11 12:12:43;;;;;;;3.38;1.70;;;25.30;99.90;;;;;;5208567;27;20012;-77
2024/04/11 12:15:14;;;;;;;5.88;1.40;;;24.70;99.90;;;;;;5208735;27;19999;-78
2024/04/11 12:17:39;;;;;;;4.47;2.00;;;24.70;99.90;;;;;;5241738;27;20005;-78
2024/04/11 12:20:05;;;;;;;3.65;1.90;;;25.10;99.90;;;;;;5241406;27;19999;-78
2024/04/11 12:22:34;;;;;;;4.50;1.77;;;25.40;99.90;;;;;;5208122;27;20447;-79
2024/04/11 12:25:01;;;;;;;5.43;1.83;;;25.40;99.90;;;;;;5208062;27;20024;-78
2024/04/11 12:27:28;;;;;;;5.25;1.60;;;24.80;99.90;;;;;;5208177;27;20000;-78
2024/04/11 12:30:01;;;;;;;2.55;1.42;;;24.90;99.90;;;;;;5207915;27;20004;-78
2024/04/11 12:32:30;;;;;;;7.38;1.67;;;25.20;99.90;;;;;;5257034;27;19991;-79
2024/04/11 12:34:55;;;;;;;3.75;1.63;;;25.10;99.90;;;;;;5275104;27;19999;-79
2024/04/11 12:37:25;;;;;;;3.83;1.40;;;25.20;99.90;;;;;;5275575;27;20441;-79
2024/04/11 12:39:54;;;;;;;5.20;1.80;;;25.10;99.90;;;;;;5237923;27;20043;-80
2024/04/11 12:42:30;;;;;;;3.58;1.90;;;25.50;99.90;;;;;;5241012;27;20014;-79
2024/04/11 12:44:58;;;;;;;;;;;25.10;99.90;;;;;;5241186;27;20007;-80
2024/04/11 12:47:38;;;;;;;4.75;2.50;;;25.10;99.90;;;;;;5242069;27;19935;-79
2024/04/11 12:50:14;;;;;;;9.73;1.80;;;25.00;99.90;;;;;;5244242;27;20038;-79
2024/04/11 12:52:49;;;;;;;4.63;1.83;;;25.00;99.90;;;;;;5249027;27;20434;-79
2024/04/11 12:55:24;;;;;;;3.83;1.90;;;24.90;99.90;;;;;;5278618;27;19994;-79
2024/04/11 12:57:51;;;;;;;6.35;1.80;;;25.00;99.90;;;;;;5312294;27;19994;-78